createdAt,value
2018-09-22T00:01:54.085Z,15.47
2018-09-22T00:04:23.703Z,15.10
2018-09-22T00:06:53.388Z,16.67
2018-09-22T00:09:23.150Z,15.40
2018-09-22T00:11:52.856Z,15.07
2018-09-22T00:14:22.549Z,17.25
2018-09-22T00:16:52.327Z,15.93
2018-09-22T00:19:22.470Z,18.82
2018-09-22T00:21:52.431Z,16.03
2018-09-22T00:24:22.333Z,15.40
2018-09-22T00:26:52.252Z,15.90
2018-09-22T00:29:22.139Z,16.20
2018-09-22T00:31:51.744Z,16.30
2018-09-22T00:34:21.562Z,15.47
2018-09-22T00:36:51.563Z,14.77
2018-09-22T00:39:21.528Z,14.17
2018-09-22T00:41:51.298Z,14.90
2018-09-22T00:44:20.911Z,15.40
2018-09-22T00:46:50.792Z,18.20
2018-09-22T00:49:20.599Z,15.23
2018-09-22T00:51:50.443Z,14.53
2018-09-22T00:54:20.291Z,15.37
2018-09-22T00:56:50.145Z,15.00
2018-09-22T00:59:20.105Z,14.97
2018-09-22T01:01:50.137Z,14.93
2018-09-22T01:04:19.785Z,15.60
2018-09-22T01:06:49.940Z,15.50
2018-09-22T01:09:19.669Z,15.70
2018-09-22T01:11:49.529Z,15.95
2018-09-22T01:14:19.393Z,16.17
2018-09-22T01:16:49.393Z,15.93
2018-09-22T01:19:19.174Z,16.20
2018-09-22T01:21:48.930Z,15.40
2018-09-22T01:24:18.741Z,17.70
2018-09-22T01:26:48.468Z,19.20
2018-09-22T01:29:18.086Z,19.07
2018-09-22T01:31:47.802Z,20.60
2018-09-22T01:34:17.503Z,18.73
2018-09-22T01:36:47.114Z,19.47
2018-09-22T01:39:16.798Z,20.10
2018-09-22T01:41:46.662Z,19.67
2018-09-22T01:44:16.709Z,19.63
2018-09-22T01:46:46.411Z,19.13
2018-09-22T01:49:16.069Z,19.57
2018-09-22T01:51:46.000Z,19.27
2018-09-22T01:54:15.659Z,17.37
2018-09-22T01:56:45.289Z,18.23
2018-09-22T01:59:15.101Z,19.20
2018-09-22T02:01:44.828Z,18.67
2018-09-22T02:04:14.663Z,19.47
2018-09-22T02:06:44.520Z,19.53
2018-09-22T02:09:14.155Z,19.33
2018-09-22T02:11:43.747Z,19.57
2018-09-22T02:14:13.534Z,19.07
2018-09-22T02:16:43.289Z,19.97
2018-09-22T02:19:13.059Z,22.32
2018-09-22T02:21:42.852Z,19.00
2018-09-22T02:24:12.492Z,18.10
2018-09-22T02:26:42.265Z,17.93
2018-09-22T02:29:11.934Z,16.27
2018-09-22T02:31:41.700Z,20.55
2018-09-22T02:34:11.444Z,16.73
2018-09-22T02:36:41.161Z,16.90
2018-09-22T02:39:11.724Z,16.37
2018-09-22T02:41:41.504Z,15.93
2018-09-22T02:44:11.289Z,16.70
2018-09-22T02:46:41.184Z,17.63
2018-09-22T02:49:10.879Z,17.47
2018-09-22T02:51:40.440Z,16.87
2018-09-22T02:54:10.069Z,19.87
2018-09-22T02:56:39.907Z,18.77
2018-09-22T02:59:09.657Z,19.60
2018-09-22T03:01:39.403Z,18.70
2018-09-22T03:04:09.079Z,18.97
2018-09-22T03:06:38.913Z,18.60
2018-09-22T03:09:10.642Z,19.67
2018-09-22T03:11:40.446Z,19.23
2018-09-22T03:14:10.563Z,18.43
2018-09-22T03:16:41.177Z,19.17
2018-09-22T03:19:11.172Z,18.10
2018-09-22T03:21:41.030Z,18.73
2018-09-22T03:24:10.951Z,17.60
2018-09-22T03:26:41.114Z,18.07
2018-09-22T03:29:10.797Z,19.37
2018-09-22T03:31:40.625Z,18.33
2018-09-22T03:34:10.451Z,18.60
2018-09-22T03:36:40.059Z,17.97
2018-09-22T03:39:11.384Z,18.37
2018-09-22T03:41:41.468Z,18.40
2018-09-22T03:44:11.533Z,18.10
2018-09-22T03:46:41.399Z,18.20
2018-09-22T03:49:11.701Z,17.80
2018-09-22T03:51:41.936Z,17.73
2018-09-22T03:54:11.662Z,17.67
2018-09-22T03:56:41.298Z,17.37
2018-09-22T03:59:11.306Z,18.07
2018-09-22T04:01:41.048Z,19.63
2018-09-22T04:04:11.041Z,17.30
2018-09-22T04:06:40.716Z,17.50
2018-09-22T04:09:10.565Z,18.50
2018-09-22T04:11:40.292Z,19.00
2018-09-22T04:14:09.856Z,18.63
2018-09-22T04:16:39.578Z,17.67
2018-09-22T04:19:09.305Z,17.97
2018-09-22T04:21:38.915Z,17.83
2018-09-22T04:24:13.689Z,19.03
2018-09-22T04:26:43.623Z,18.07
2018-09-22T04:29:13.394Z,17.03
2018-09-22T04:31:43.130Z,17.67
2018-09-22T04:34:13.237Z,17.97
2018-09-22T04:36:43.168Z,17.60
2018-09-22T04:39:13.234Z,20.82
2018-09-22T04:41:46.237Z,20.37
2018-09-22T04:44:16.341Z,20.97
2018-09-22T04:46:46.358Z,17.83
2018-09-22T04:49:16.205Z,18.13
2018-09-22T04:51:46.032Z,18.57
2018-09-22T04:54:15.706Z,19.60
2018-09-22T04:56:45.792Z,18.10
2018-09-22T04:59:15.626Z,19.40
2018-09-22T05:01:45.415Z,18.17
2018-09-22T05:04:15.162Z,18.43
2018-09-22T05:06:44.904Z,17.03
2018-09-22T05:09:14.680Z,17.23
2018-09-22T05:11:44.321Z,17.77
2018-09-22T05:14:14.131Z,17.13
2018-09-22T05:16:43.900Z,17.77
2018-09-22T05:19:13.628Z,18.43
2018-09-22T05:21:43.345Z,18.70
2018-09-22T05:24:13.235Z,18.70
2018-09-22T05:26:43.086Z,19.83
2018-09-22T05:29:13.007Z,19.00
2018-09-22T05:31:42.738Z,18.47
2018-09-22T05:34:12.362Z,20.10
2018-09-22T05:36:42.397Z,18.93
2018-09-22T05:39:13.150Z,20.97
2018-09-22T05:41:44.279Z,20.60
2018-09-22T05:44:14.123Z,22.17
2018-09-22T05:46:43.774Z,23.60
2018-09-22T05:49:13.428Z,24.63
2018-09-22T05:51:43.307Z,23.00
2018-09-22T05:54:12.969Z,22.20
2018-09-22T05:56:43.257Z,23.70
2018-09-22T05:59:12.973Z,25.80
2018-09-22T06:01:42.609Z,26.13
2018-09-22T06:04:12.334Z,26.90
2018-09-22T06:06:42.298Z,24.57
2018-09-22T06:09:23.955Z,20.27
2018-09-22T06:11:54.652Z,21.67
2018-09-22T06:14:25.280Z,19.83
2018-09-22T06:16:55.831Z,19.37
2018-09-22T06:19:26.104Z,20.80
2018-09-22T06:21:57.020Z,19.80
2018-09-22T06:24:28.252Z,18.33
2018-09-22T06:26:58.061Z,20.30
2018-09-22T06:29:34.266Z,18.57
2018-09-22T06:32:04.076Z,19.23
2018-09-22T06:34:33.726Z,18.00
2018-09-22T06:37:14.643Z,18.07
2018-09-22T06:39:45.112Z,17.07
2018-09-22T06:42:15.991Z,17.83
2018-09-22T06:44:47.886Z,17.80
2018-09-22T06:47:19.213Z,18.93
2018-09-22T06:49:50.684Z,18.57
2018-09-22T06:52:21.917Z,16.70
2018-09-22T06:54:53.259Z,17.20
2018-09-22T06:57:23.424Z,16.13
2018-09-22T06:59:53.308Z,15.07
2018-09-22T07:02:25.407Z,15.20
2018-09-22T07:04:55.616Z,16.07
2018-09-22T07:07:26.695Z,13.97
2018-09-22T07:09:56.452Z,14.30
2018-09-22T07:12:26.320Z,15.00
2018-09-22T07:14:56.041Z,15.17
2018-09-22T07:17:25.643Z,14.63
2018-09-22T07:19:55.465Z,13.63
2018-09-22T07:22:31.058Z,14.00
2018-09-22T07:25:00.866Z,13.93
2018-09-22T07:27:30.635Z,14.43
2018-09-22T07:30:00.336Z,13.93
2018-09-22T07:32:29.989Z,14.70
2018-09-22T07:34:59.786Z,15.67
2018-09-22T07:37:29.430Z,15.90
2018-09-22T07:39:59.398Z,15.47
2018-09-22T07:42:29.315Z,16.00
2018-09-22T07:44:59.569Z,16.43
2018-09-22T07:47:29.930Z,17.50
2018-09-22T07:50:01.538Z,15.90
2018-09-22T07:52:31.281Z,17.90
2018-09-22T07:55:01.377Z,19.70
2018-09-22T07:57:31.510Z,17.37
2018-09-22T08:00:01.540Z,16.27
2018-09-22T08:02:31.348Z,15.18
2018-09-22T08:05:01.097Z,13.47
2018-09-22T08:07:30.701Z,14.07
2018-09-22T08:10:00.450Z,12.53
2018-09-22T08:12:30.313Z,14.07
2018-09-22T08:15:00.162Z,13.03
2018-09-22T08:17:29.948Z,17.53
2018-09-22T08:19:59.652Z,16.57
2018-09-22T08:22:29.599Z,29.63
2018-09-22T08:24:59.325Z,12.83
2018-09-22T08:27:29.035Z,12.57
2018-09-22T08:29:58.845Z,12.27
2018-09-22T08:32:28.676Z,14.07
2018-09-22T08:34:58.320Z,12.50
2018-09-22T08:37:28.056Z,11.80
2018-09-22T08:39:57.816Z,11.23
2018-09-22T08:42:27.477Z,10.87
2018-09-22T08:44:57.207Z,15.00
2018-09-22T08:47:26.968Z,10.50
2018-09-22T08:49:56.838Z,9.70
2018-09-22T08:52:26.725Z,9.70
2018-09-22T08:54:56.782Z,10.10
2018-09-22T08:57:26.704Z,9.27
2018-09-22T08:59:56.570Z,8.07
2018-09-22T09:02:26.513Z,14.83
2018-09-22T09:04:56.555Z,12.43
2018-09-22T09:07:29.657Z,8.70
2018-09-22T09:10:00.555Z,8.57
2018-09-22T09:12:31.854Z,9.90
2018-09-22T09:15:04.589Z,9.40
2018-09-22T09:17:36.468Z,10.90
2018-09-22T09:20:08.820Z,11.90
2018-09-22T09:22:38.602Z,10.40
2018-09-22T09:25:11.543Z,15.47
2018-09-22T09:27:45.886Z,11.27
2018-09-22T09:30:18.618Z,11.40
2018-09-22T09:32:51.452Z,11.10
2018-09-22T09:35:23.003Z,11.53
2018-09-22T09:37:53.484Z,11.73
2018-09-22T09:40:24.246Z,12.30
2018-09-22T09:42:56.836Z,12.00
2018-09-22T09:45:27.501Z,10.97
2018-09-22T09:47:59.474Z,12.37
2018-09-22T09:50:30.399Z,11.60
2018-09-22T09:53:01.477Z,13.07
2018-09-22T09:55:31.779Z,13.43
2018-09-22T09:58:13.492Z,15.60
2018-09-22T10:00:51.402Z,16.93
2018-09-22T10:03:26.697Z,14.97
2018-09-22T10:05:57.575Z,15.83
2018-09-22T10:08:31.800Z,14.80
2018-09-22T10:11:01.489Z,16.23
2018-09-22T10:13:32.888Z,16.27
2018-09-22T10:16:05.218Z,17.73
2018-09-22T10:18:38.013Z,17.20
2018-09-22T10:21:09.643Z,17.07
2018-09-22T10:23:41.405Z,16.43
2018-09-22T10:26:12.717Z,14.53
2018-09-22T10:28:43.062Z,16.23
2018-09-22T10:31:15.594Z,14.93
2018-09-22T10:33:47.562Z,14.53
2018-09-22T10:36:20.360Z,14.43
2018-09-22T10:38:51.800Z,14.80
2018-09-22T10:41:29.903Z,15.57
2018-09-22T10:44:01.764Z,14.30
2018-09-22T10:46:31.683Z,13.90
2018-09-22T10:49:03.187Z,14.07
2018-09-22T10:51:34.040Z,13.03
2018-09-22T10:54:03.732Z,13.37
2018-09-22T10:56:35.460Z,14.80
2018-09-22T10:59:06.587Z,13.40
2018-09-22T11:01:37.263Z,12.33
2018-09-22T11:04:08.515Z,13.00
2018-09-22T11:06:39.621Z,12.17
2018-09-22T11:09:10.936Z,11.47
2018-09-22T11:11:41.038Z,10.93
2018-09-22T11:14:11.321Z,11.77
2018-09-22T11:16:42.388Z,10.67
2018-09-22T11:19:14.120Z,11.63
2018-09-22T11:21:43.929Z,11.70
2018-09-22T11:24:13.508Z,11.93
2018-09-22T11:26:45.529Z,12.37
2018-09-22T11:29:15.281Z,12.33
2018-09-22T11:31:45.051Z,10.70
2018-09-22T11:34:14.949Z,11.23
2018-09-22T11:36:44.744Z,10.07
2018-09-22T11:39:14.905Z,9.50
2018-09-22T11:41:45.301Z,10.07
2018-09-22T11:44:15.075Z,9.10
2018-09-22T11:46:44.948Z,9.87
2018-09-22T11:49:14.698Z,9.27
2018-09-22T11:51:44.784Z,9.00
2018-09-22T11:54:14.609Z,9.07
2018-09-22T11:56:44.422Z,12.10
2018-09-22T11:59:14.187Z,9.40
2018-09-22T12:01:44.015Z,7.90
2018-09-22T12:04:13.829Z,8.63
2018-09-22T12:06:43.663Z,9.00
2018-09-22T12:09:13.474Z,8.20
2018-09-22T12:11:43.466Z,8.00
2018-09-22T12:14:13.368Z,7.63
2018-09-22T12:16:44.386Z,7.70
2018-09-22T12:19:14.165Z,8.67
2018-09-22T12:21:44.355Z,8.57
2018-09-22T12:24:14.035Z,8.33
2018-09-22T12:26:43.694Z,7.13
2018-09-22T12:29:13.730Z,8.10
2018-09-22T12:31:43.509Z,7.90
2018-09-22T12:34:13.242Z,7.47
2018-09-22T12:36:43.013Z,7.73
2018-09-22T12:39:13.626Z,8.00
2018-09-22T12:41:43.394Z,7.43
2018-09-22T12:44:13.275Z,7.20
2018-09-22T12:46:43.081Z,7.47
2018-09-22T12:49:12.976Z,7.63
2018-09-22T12:51:42.731Z,7.37
2018-09-22T12:54:13.607Z,9.17
2018-09-22T12:56:43.662Z,6.90
2018-09-22T12:59:23.737Z,6.67
2018-09-22T13:01:55.339Z,6.57
2018-09-22T13:04:26.129Z,7.80
2018-09-22T13:06:57.828Z,7.63
2018-09-22T13:09:28.192Z,7.00
2018-09-22T13:12:03.182Z,6.83
2018-09-22T13:14:32.966Z,7.13
2018-09-22T13:17:12.341Z,7.43
2018-09-22T13:19:50.207Z,7.57
2018-09-22T13:22:21.590Z,6.97
2018-09-22T13:24:51.479Z,6.97
2018-09-22T13:27:21.500Z,7.20
2018-09-22T13:29:51.207Z,6.93
2018-09-22T13:32:21.043Z,7.70
2018-09-22T13:34:50.767Z,7.67
2018-09-22T13:37:20.706Z,7.20
2018-09-22T13:39:50.290Z,7.47
2018-09-22T13:42:20.767Z,7.73
2018-09-22T13:44:50.591Z,8.00
2018-09-22T13:47:20.364Z,7.80
2018-09-22T13:49:52.828Z,7.40
2018-09-22T13:52:23.267Z,7.53
2018-09-22T13:54:53.183Z,7.00
2018-09-22T13:57:23.229Z,8.17
2018-09-22T13:59:52.988Z,5.57
2018-09-22T14:02:23.752Z,6.60
2018-09-22T14:04:54.378Z,6.50
2018-09-22T14:07:24.197Z,6.23
2018-09-22T14:09:54.029Z,5.87
2018-09-22T14:12:23.988Z,6.00
2018-09-22T14:14:53.713Z,5.73
2018-09-22T14:17:23.668Z,5.97
2018-09-22T14:19:53.587Z,5.90
2018-09-22T14:22:23.295Z,5.83
2018-09-22T14:24:53.177Z,6.57
2018-09-22T14:27:22.805Z,7.63
2018-09-22T14:29:52.438Z,7.30
2018-09-22T14:32:22.074Z,6.83
2018-09-22T14:34:51.958Z,7.10
2018-09-22T14:37:21.600Z,7.33
2018-09-22T14:39:52.547Z,7.40
2018-09-22T14:42:22.474Z,6.50
2018-09-22T14:44:52.425Z,7.93
2018-09-22T14:47:22.285Z,7.03
2018-09-22T14:49:51.985Z,7.97
2018-09-22T14:52:21.861Z,8.10
2018-09-22T14:54:51.880Z,8.47
2018-09-22T14:57:21.593Z,8.43
2018-09-22T14:59:51.410Z,7.80
2018-09-22T15:02:22.138Z,8.70
2018-09-22T15:04:52.065Z,8.90
2018-09-22T15:07:26.080Z,8.57
2018-09-22T15:09:55.745Z,8.90
2018-09-22T15:12:25.705Z,8.93
2018-09-22T15:14:55.403Z,9.53
2018-09-22T15:17:29.274Z,9.80
2018-09-22T15:19:59.424Z,9.87
2018-09-22T15:22:29.278Z,10.07
2018-09-22T15:24:59.009Z,10.23
2018-09-22T15:27:28.657Z,10.83
2018-09-22T15:29:58.966Z,11.20
2018-09-22T15:32:28.674Z,10.90
2018-09-22T15:34:58.487Z,10.83
2018-09-22T15:37:28.132Z,12.03
2018-09-22T15:39:57.785Z,11.20
2018-09-22T15:42:27.512Z,11.50
2018-09-22T15:44:57.316Z,11.70
2018-09-22T15:47:27.124Z,13.17
2018-09-22T15:49:57.059Z,12.80
2018-09-22T15:52:26.768Z,12.33
2018-09-22T15:54:56.563Z,12.10
2018-09-22T15:57:26.395Z,13.17
2018-09-22T15:59:56.238Z,13.73
2018-09-22T16:02:25.961Z,21.50
2018-09-22T16:04:56.539Z,22.77
2018-09-22T16:07:26.684Z,36.73
2018-09-22T16:09:56.337Z,24.57
2018-09-22T16:12:26.036Z,17.13
2018-09-22T16:14:55.796Z,18.00
2018-09-22T16:17:25.565Z,18.10
2018-09-22T16:19:55.278Z,18.37
2018-09-22T16:22:24.963Z,20.53
2018-09-22T16:24:54.575Z,21.40
2018-09-22T16:27:24.317Z,19.60
2018-09-22T16:29:54.110Z,19.83
2018-09-22T16:32:23.811Z,19.57
2018-09-22T16:34:53.546Z,19.13
2018-09-22T16:37:24.444Z,18.20
2018-09-22T16:39:54.261Z,19.33
2018-09-22T16:42:24.056Z,19.63
2018-09-22T16:44:53.792Z,20.03
2018-09-22T16:47:24.133Z,18.47
2018-09-22T16:49:53.791Z,20.40
2018-09-22T16:52:23.640Z,23.30
2018-09-22T16:54:53.491Z,26.33
2018-09-22T16:57:23.253Z,25.87
2018-09-22T16:59:53.051Z,23.47
2018-09-22T17:02:22.881Z,24.60
2018-09-22T17:04:52.918Z,21.90
2018-09-22T17:07:22.512Z,24.43
2018-09-22T17:09:52.402Z,23.47
2018-09-22T17:12:22.164Z,23.27
2018-09-22T17:15:03.967Z,22.53
2018-09-22T17:17:34.643Z,24.73
2018-09-22T17:20:08.820Z,22.57
2018-09-22T17:22:38.791Z,23.13
2018-09-22T17:25:08.642Z,25.47
2018-09-22T17:27:38.548Z,24.00
2018-09-22T17:30:08.439Z,22.47
2018-09-22T17:32:38.154Z,22.70
2018-09-22T17:35:07.933Z,23.93
2018-09-22T17:37:37.614Z,23.90
2018-09-22T17:40:07.465Z,23.00
2018-09-22T17:42:37.229Z,24.53
2018-09-22T17:45:07.088Z,23.87
2018-09-22T17:47:36.756Z,22.83
2018-09-22T17:50:06.955Z,24.13
2018-09-22T17:52:36.650Z,24.73
2018-09-22T17:55:06.605Z,23.93
2018-09-22T17:57:36.554Z,26.10
2018-09-22T18:00:06.478Z,24.50
2018-09-22T18:02:36.174Z,25.53
2018-09-22T18:05:06.641Z,25.33
2018-09-22T18:07:36.348Z,24.13
2018-09-22T18:10:06.007Z,24.77
2018-09-22T18:12:35.709Z,25.53
2018-09-22T18:15:05.806Z,25.83
2018-09-22T18:17:37.295Z,25.47
2018-09-22T18:20:07.495Z,25.00
2018-09-22T18:22:47.660Z,26.40
2018-09-22T18:25:18.023Z,26.37
2018-09-22T18:27:50.163Z,25.50
2018-09-22T18:30:22.125Z,27.85
2018-09-22T18:32:54.392Z,25.10
2018-09-22T18:35:25.398Z,26.40
2018-09-22T18:37:59.088Z,28.77
2018-09-22T18:40:29.870Z,27.47
2018-09-22T18:43:06.379Z,26.70
2018-09-22T18:45:40.029Z,27.07
2018-09-22T18:48:16.807Z,27.33
2018-09-22T18:50:51.132Z,29.47
2018-09-22T18:53:22.006Z,28.80
2018-09-22T18:55:54.449Z,32.53
2018-09-22T18:58:25.073Z,29.30
2018-09-22T19:00:55.382Z,29.83
2018-09-22T19:03:25.293Z,30.60
2018-09-22T19:05:54.954Z,29.33
2018-09-22T19:08:24.648Z,30.47
2018-09-22T19:10:54.413Z,30.67
2018-09-22T19:13:28.886Z,30.07
2018-09-22T19:16:02.202Z,31.37
2018-09-22T19:19:07.357Z,31.90
2018-09-22T19:21:41.933Z,32.83
2018-09-22T19:24:15.341Z,33.13
2018-09-22T19:26:48.230Z,32.60
2018-09-22T19:29:22.200Z,33.90
2018-09-22T19:31:55.795Z,33.97
2018-09-22T19:34:29.919Z,32.97
2018-09-22T19:37:03.810Z,35.17
2018-09-22T19:39:37.561Z,35.30
2018-09-22T19:42:15.011Z,36.67
2018-09-22T19:45:50.777Z,36.73
2018-09-22T19:48:34.700Z,41.13
2018-09-22T19:51:11.808Z,42.83
2018-09-22T19:53:42.600Z,38.67
2018-09-22T19:56:12.283Z,38.63
2018-09-22T19:58:42.580Z,39.17
2018-09-22T20:01:14.010Z,40.33
2018-09-22T20:03:56.796Z,37.67
2018-09-22T20:06:28.117Z,38.67
2018-09-22T20:08:59.533Z,38.93
2018-09-22T20:11:30.550Z,39.37
2018-09-22T20:14:01.587Z,39.37
2018-09-22T20:16:31.550Z,37.73
2018-09-22T20:19:02.590Z,38.03
2018-09-22T20:21:32.338Z,38.37
2018-09-22T20:24:02.088Z,37.17
2018-09-22T20:26:31.721Z,36.40
2018-09-22T20:29:01.578Z,33.77
2018-09-22T20:31:31.422Z,33.33
2018-09-22T20:34:01.030Z,33.17
2018-09-22T20:36:30.802Z,33.77
2018-09-22T20:39:00.586Z,33.70
2018-09-22T20:41:30.445Z,32.27
2018-09-22T20:44:00.433Z,31.80
2018-09-22T20:46:30.915Z,30.00
2018-09-22T20:49:00.851Z,29.80
2018-09-22T20:51:30.629Z,31.30
2018-09-22T20:54:00.643Z,30.17
2018-09-22T20:56:30.337Z,29.60
2018-09-22T20:59:00.106Z,29.13
2018-09-22T21:01:29.862Z,26.93
2018-09-22T21:03:59.992Z,26.77
2018-09-22T21:06:29.796Z,25.80
2018-09-22T21:08:59.712Z,25.70
2018-09-22T21:11:29.518Z,26.27
2018-09-22T21:13:59.163Z,25.70
2018-09-22T21:16:28.864Z,25.77
2018-09-22T21:18:58.612Z,27.17
2018-09-22T21:21:28.421Z,26.67
2018-09-22T21:24:03.985Z,26.43
2018-09-22T21:26:35.007Z,25.90
2018-09-22T21:29:06.655Z,30.47
2018-09-22T21:31:40.262Z,30.43
2018-09-22T21:34:18.113Z,31.10
2018-09-22T21:36:52.331Z,32.30
2018-09-22T21:39:26.530Z,29.80
2018-09-22T21:41:56.877Z,30.47
2018-09-22T21:44:27.281Z,31.30
2018-09-22T21:46:57.808Z,34.63
2018-09-22T21:49:29.969Z,37.47
2018-09-22T21:52:02.867Z,34.37
2018-09-22T21:54:36.308Z,31.47
2018-09-22T21:57:06.353Z,32.03
2018-09-22T21:59:36.280Z,30.80
2018-09-22T22:02:06.072Z,30.20
2018-09-22T22:04:35.868Z,30.07
2018-09-22T22:07:05.650Z,29.33
2018-09-22T22:09:35.381Z,28.50
2018-09-22T22:12:05.246Z,29.90
2018-09-22T22:14:35.047Z,30.57
2018-09-22T22:17:04.864Z,29.47
2018-09-22T22:19:34.534Z,29.73
2018-09-22T22:22:04.575Z,29.97
2018-09-22T22:24:34.387Z,29.33
2018-09-22T22:27:04.392Z,29.33
2018-09-22T22:29:34.165Z,28.70
2018-09-22T22:32:03.915Z,29.23
2018-09-22T22:34:33.553Z,30.07
2018-09-22T22:37:03.345Z,29.10
2018-09-22T22:39:32.979Z,30.57
2018-09-22T22:42:02.742Z,30.30
2018-09-22T22:44:32.517Z,30.67
2018-09-22T22:47:02.404Z,32.40
2018-09-22T22:49:32.692Z,33.17
2018-09-22T22:52:02.576Z,33.60
2018-09-22T22:54:32.837Z,33.70
2018-09-22T22:57:02.635Z,33.30
2018-09-22T22:59:32.342Z,32.87
2018-09-22T23:02:02.499Z,32.37
2018-09-22T23:04:32.189Z,34.40
2018-09-22T23:07:02.202Z,35.03
2018-09-22T23:09:31.962Z,34.33
2018-09-22T23:12:01.825Z,33.83
2018-09-22T23:14:31.604Z,33.13
2018-09-22T23:17:01.386Z,37.73
2018-09-22T23:19:31.154Z,32.97
2018-09-22T23:22:00.904Z,31.43
2018-09-22T23:24:30.707Z,30.27
2018-09-22T23:27:00.451Z,30.60
2018-09-22T23:29:30.191Z,31.07
2018-09-22T23:31:59.817Z,30.33
2018-09-22T23:34:30.126Z,30.13
2018-09-22T23:37:00.096Z,30.50
2018-09-22T23:39:29.991Z,30.17
2018-09-22T23:41:59.667Z,30.43
2018-09-22T23:44:29.570Z,31.23
2018-09-22T23:46:59.732Z,31.13
2018-09-22T23:49:29.442Z,29.40
2018-09-22T23:51:59.417Z,30.40
2018-09-22T23:54:29.152Z,30.50
2018-09-22T23:56:58.881Z,30.07
2018-09-22T23:59:28.695Z,30.53
